createdAt,value
2023-05-09T00:00:23.041Z,13.635
2023-05-09T00:01:23.393Z,13.635
2023-05-09T00:02:24.127Z,13.670
2023-05-09T00:03:23.924Z,13.632
2023-05-09T00:04:23.315Z,13.603
2023-05-09T00:05:24.250Z,13.632
2023-05-09T00:06:23.477Z,13.606
2023-05-09T00:08:22.896Z,13.603
2023-05-09T00:09:23.122Z,13.579
2023-05-09T00:10:23.387Z,13.587
2023-05-09T00:11:23.559Z,13.632
2023-05-09T00:12:22.757Z,13.667
2023-05-09T00:13:23.340Z,13.587
2023-05-09T00:14:22.733Z,13.614
2023-05-09T00:15:23.088Z,13.619
2023-05-09T00:16:23.488Z,13.638
2023-05-09T00:17:23.008Z,13.619
2023-05-09T00:18:23.253Z,13.614
2023-05-09T00:19:23.711Z,13.603
2023-05-09T00:20:23.007Z,13.598
2023-05-09T00:21:23.242Z,13.619
2023-05-09T00:22:23.554Z,13.590
2023-05-09T00:23:22.815Z,13.600
2023-05-09T00:24:23.238Z,13.560
2023-05-09T00:25:23.861Z,13.552
2023-05-09T00:26:23.026Z,13.616
2023-05-09T00:27:23.220Z,13.568
2023-05-09T00:28:23.436Z,13.534
2023-05-09T00:29:23.602Z,13.536
2023-05-09T00:30:22.950Z,13.512
2023-05-09T00:31:23.146Z,13.504
2023-05-09T00:32:23.802Z,13.502
2023-05-09T00:33:23.197Z,13.491
2023-05-09T00:34:23.357Z,13.512
2023-05-09T00:35:24.021Z,13.486
2023-05-09T00:36:23.187Z,13.504
2023-05-09T00:37:23.357Z,13.507
2023-05-09T00:38:23.625Z,13.502
2023-05-09T00:39:22.782Z,13.502
2023-05-09T00:40:23.093Z,13.502
2023-05-09T00:41:23.315Z,13.512
2023-05-09T00:42:23.497Z,13.526
2023-05-09T00:43:22.705Z,13.494
2023-05-09T00:44:22.886Z,13.470
2023-05-09T00:45:23.390Z,13.504
2023-05-09T00:46:23.901Z,13.504
2023-05-09T00:47:23.406Z,13.478
2023-05-09T00:48:22.779Z,13.475
2023-05-09T00:49:22.943Z,13.499
2023-05-09T00:50:23.155Z,13.464
2023-05-09T00:51:23.374Z,13.440
2023-05-09T00:52:23.639Z,13.448
2023-05-09T00:53:22.831Z,13.411
2023-05-09T00:54:23.020Z,13.405
2023-05-09T00:55:23.377Z,13.443
2023-05-09T00:56:22.887Z,13.397
2023-05-09T00:57:23.156Z,13.400
2023-05-09T00:58:23.332Z,13.389
2023-05-09T00:59:26.550Z,13.379
2023-05-09T01:00:22.715Z,13.379
2023-05-09T01:01:23.062Z,13.373
2023-05-09T01:02:23.666Z,13.376
2023-05-09T01:03:23.529Z,13.349
2023-05-09T01:04:22.995Z,13.357
2023-05-09T01:05:24.155Z,13.376
2023-05-09T01:06:23.351Z,13.333
2023-05-09T01:07:23.599Z,13.365
2023-05-09T01:08:22.795Z,13.336
2023-05-09T01:09:22.982Z,13.312
2023-05-09T01:10:23.209Z,13.299
2023-05-09T01:11:23.570Z,13.285
2023-05-09T01:12:22.781Z,13.272
2023-05-09T01:13:23.365Z,13.251
2023-05-09T01:14:23.638Z,13.245
2023-05-09T01:15:22.813Z,13.235
2023-05-09T01:16:23.248Z,13.237
2023-05-09T01:17:22.906Z,13.219
2023-05-09T01:18:23.194Z,13.197
2023-05-09T01:20:23.681Z,13.170
2023-05-09T01:21:22.801Z,13.138
2023-05-09T01:22:23.111Z,13.157
2023-05-09T01:23:23.318Z,13.157
2023-05-09T01:24:23.606Z,13.122
2023-05-09T01:25:22.795Z,13.130
2023-05-09T01:26:23.049Z,13.146
2023-05-09T01:27:23.298Z,13.109
2023-05-09T01:28:23.532Z,13.085
2023-05-09T01:29:22.691Z,13.130
2023-05-09T01:30:22.892Z,13.069
2023-05-09T01:31:23.378Z,13.082
2023-05-09T01:32:22.694Z,13.080
2023-05-09T01:33:23.019Z,13.128
2023-05-09T01:34:23.220Z,13.074
2023-05-09T01:35:23.901Z,13.069
2023-05-09T01:36:23.239Z,13.082
2023-05-09T01:37:23.427Z,13.069
2023-05-09T01:38:23.675Z,13.069
2023-05-09T01:39:22.968Z,13.074
2023-05-09T01:40:23.224Z,13.085
2023-05-09T01:41:23.458Z,13.069
2023-05-09T01:42:23.673Z,13.093
2023-05-09T01:43:22.874Z,13.082
2023-05-09T01:44:23.582Z,13.058
2023-05-09T01:45:23.062Z,13.082
2023-05-09T01:46:23.355Z,13.077
2023-05-09T01:47:22.718Z,13.109
2023-05-09T01:48:23.206Z,13.106
2023-05-09T01:49:23.446Z,13.077
2023-05-09T01:50:23.670Z,13.058
2023-05-09T01:51:23.700Z,13.061
2023-05-09T01:52:22.978Z,13.074
2023-05-09T01:53:23.194Z,13.026
2023-05-09T01:54:23.435Z,13.032
2023-05-09T01:55:23.904Z,13.032
2023-05-09T01:57:23.307Z,13.021
2023-05-09T01:58:23.496Z,13.000
2023-05-09T01:59:22.665Z,13.053
2023-05-09T02:00:22.933Z,13.048
2023-05-09T02:01:23.701Z,13.010
2023-05-09T02:02:23.272Z,13.018
2023-05-09T02:03:24.026Z,12.986
2023-05-09T02:04:23.311Z,12.989
2023-05-09T02:05:23.515Z,12.981
2023-05-09T02:06:22.712Z,12.992
2023-05-09T02:07:22.955Z,12.986
2023-05-09T02:08:23.192Z,12.978
2023-05-09T02:09:23.383Z,13.018
2023-05-09T02:10:23.566Z,12.957
2023-05-09T02:11:22.806Z,12.976
2023-05-09T02:12:22.977Z,12.962
2023-05-09T02:13:23.582Z,12.978
2023-05-09T02:14:22.928Z,12.957
2023-05-09T02:15:23.222Z,12.962
2023-05-09T02:16:25.864Z,12.954
2023-05-09T02:17:23.405Z,12.951
2023-05-09T02:18:22.913Z,12.914
2023-05-09T02:19:23.191Z,12.866
2023-05-09T02:20:23.429Z,12.887
2023-05-09T02:21:23.714Z,12.893
2023-05-09T02:22:22.899Z,12.917
2023-05-09T02:23:23.261Z,12.895
2023-05-09T02:24:23.744Z,12.914
2023-05-09T02:25:22.878Z,12.933
2023-05-09T02:26:23.146Z,12.917
2023-05-09T02:27:23.480Z,12.895
2023-05-09T02:28:22.992Z,12.893
2023-05-09T02:29:23.189Z,12.869
2023-05-09T02:30:23.502Z,12.866
2023-05-09T02:31:22.793Z,12.885
2023-05-09T02:32:23.186Z,12.839
2023-05-09T02:33:23.669Z,12.871
2023-05-09T02:34:22.968Z,12.877
2023-05-09T02:35:23.166Z,12.887
2023-05-09T02:36:23.502Z,12.858
2023-05-09T02:37:23.706Z,12.839
2023-05-09T02:38:22.869Z,12.829
2023-05-09T02:39:23.016Z,12.829
2023-05-09T02:40:23.284Z,12.802
2023-05-09T02:41:23.267Z,12.845
2023-05-09T02:42:23.498Z,12.805
2023-05-09T02:43:22.767Z,12.815
2023-05-09T02:44:22.978Z,12.839
2023-05-09T02:45:23.599Z,12.799
2023-05-09T02:46:22.908Z,12.783
2023-05-09T02:47:23.473Z,12.757
2023-05-09T02:48:23.047Z,12.759
2023-05-09T02:49:35.358Z,12.751
2023-05-09T02:50:23.761Z,12.802
2023-05-09T02:51:22.971Z,12.805
2023-05-09T02:52:23.975Z,12.786
2023-05-09T02:53:23.350Z,12.781
2023-05-09T02:54:23.585Z,12.775
2023-05-09T02:55:23.032Z,12.775
2023-05-09T02:56:23.219Z,12.789
2023-05-09T02:57:23.424Z,12.743
2023-05-09T02:58:24.347Z,12.727
2023-05-09T02:59:22.712Z,12.695
2023-05-09T03:00:23.036Z,12.695
2023-05-09T03:01:23.495Z,12.695
2023-05-09T03:02:23.059Z,12.671
2023-05-09T03:03:23.710Z,12.650
2023-05-09T03:04:23.265Z,12.636
2023-05-09T03:05:23.844Z,12.591
2023-05-09T03:06:23.080Z,12.612
2023-05-09T03:07:23.253Z,12.596
2023-05-09T03:08:23.516Z,12.583
2023-05-09T03:09:22.659Z,12.607
2023-05-09T03:10:23.279Z,12.583
2023-05-09T03:11:23.585Z,12.628
2023-05-09T03:12:22.938Z,12.604
2023-05-09T03:13:23.556Z,12.583
2023-05-09T03:14:23.065Z,12.599
2023-05-09T03:15:23.265Z,12.572
2023-05-09T03:16:24.060Z,12.559
2023-05-09T03:17:23.536Z,12.508
2023-05-09T03:18:22.978Z,12.508
2023-05-09T03:19:23.158Z,12.535
2023-05-09T03:20:23.388Z,12.508
2023-05-09T03:21:23.605Z,12.519
2023-05-09T03:22:22.822Z,12.522
2023-05-09T03:23:22.992Z,12.511
2023-05-09T03:24:23.254Z,12.530
2023-05-09T03:25:23.487Z,12.511
2023-05-09T03:26:22.714Z,12.527
2023-05-09T03:27:22.936Z,12.506
2023-05-09T03:28:23.132Z,12.492
2023-05-09T03:29:23.318Z,12.522
2023-05-09T03:30:23.573Z,12.487
2023-05-09T03:31:22.941Z,12.441
2023-05-09T03:32:24.528Z,12.465
2023-05-09T03:33:22.895Z,12.481
2023-05-09T03:34:23.072Z,12.449
2023-05-09T03:35:23.683Z,12.460
2023-05-09T03:36:23.049Z,12.447
2023-05-09T03:37:24.371Z,12.423
2023-05-09T03:38:23.457Z,12.433
2023-05-09T03:39:23.667Z,12.449
2023-05-09T03:40:22.826Z,12.444
2023-05-09T03:41:23.010Z,12.471
2023-05-09T03:42:23.212Z,12.457
2023-05-09T03:43:23.426Z,12.473
2023-05-09T03:44:23.659Z,12.439
2023-05-09T03:45:22.850Z,12.463
2023-05-09T03:46:23.212Z,12.463
2023-05-09T03:47:23.624Z,12.452
2023-05-09T03:48:22.903Z,12.481
2023-05-09T03:49:23.125Z,12.463
2023-05-09T03:50:23.303Z,12.439
2023-05-09T03:51:23.428Z,12.447
2023-05-09T03:52:24.150Z,12.449
2023-05-09T03:53:23.356Z,12.407
2023-05-09T03:54:23.521Z,12.460
2023-05-09T03:55:23.123Z,12.423
2023-05-09T03:56:23.309Z,12.431
2023-05-09T03:57:23.570Z,12.433
2023-05-09T03:58:22.721Z,12.428
2023-05-09T03:59:22.890Z,12.455
2023-05-09T04:00:23.230Z,12.487
2023-05-09T04:01:23.511Z,12.492
2023-05-09T04:02:23.105Z,12.543
2023-05-09T04:03:24.022Z,12.564
2023-05-09T04:04:22.872Z,12.540
2023-05-09T04:05:23.428Z,12.559
2023-05-09T04:06:23.665Z,12.602
2023-05-09T04:07:22.972Z,12.548
2023-05-09T04:08:23.152Z,12.583
2023-05-09T04:09:23.347Z,12.644
2023-05-09T04:10:23.576Z,12.642
2023-05-09T04:11:22.814Z,12.650
2023-05-09T04:12:23.117Z,12.658
2023-05-09T04:13:23.590Z,12.674
2023-05-09T04:14:23.177Z,12.658
2023-05-09T04:15:23.705Z,12.674
2023-05-09T04:16:23.071Z,12.671
2023-05-09T04:17:23.412Z,12.674
2023-05-09T04:18:22.841Z,12.749
2023-05-09T04:19:23.008Z,12.770
2023-05-09T04:20:23.277Z,12.818
2023-05-09T04:21:23.536Z,12.850
2023-05-09T04:22:22.761Z,12.831
2023-05-09T04:23:23.531Z,12.751
2023-05-09T04:24:22.774Z,12.791
2023-05-09T04:25:23.362Z,12.778
2023-05-09T04:26:23.706Z,12.762
2023-05-09T04:27:22.947Z,12.821
2023-05-09T04:28:23.114Z,12.893
2023-05-09T04:29:23.260Z,12.933
2023-05-09T04:30:23.467Z,12.967
2023-05-09T04:31:23.180Z,12.879
2023-05-09T04:32:23.802Z,12.877
2023-05-09T04:33:23.085Z,12.839
2023-05-09T04:34:23.298Z,12.775
2023-05-09T04:35:26.290Z,12.738
2023-05-09T04:38:22.843Z,12.684
2023-05-09T04:39:23.011Z,12.642
2023-05-09T04:40:25.450Z,12.620
2023-05-09T04:41:22.876Z,12.572
2023-05-09T04:42:23.102Z,12.612
2023-05-09T04:43:23.366Z,12.596
2023-05-09T04:44:22.731Z,12.583
2023-05-09T04:45:23.121Z,12.586
2023-05-09T04:46:25.986Z,12.570
2023-05-09T04:47:23.509Z,12.602
2023-05-09T04:49:23.055Z,12.607
2023-05-09T04:50:23.310Z,12.588
2023-05-09T04:51:23.676Z,12.618
2023-05-09T04:52:22.854Z,12.626
2023-05-09T04:53:22.912Z,12.674
2023-05-09T04:54:23.180Z,12.706
2023-05-09T04:55:23.886Z,12.684
2023-05-09T04:56:23.123Z,12.724
2023-05-09T04:57:24.385Z,12.738
2023-05-09T04:58:23.621Z,12.759
2023-05-09T05:01:23.429Z,12.898
2023-05-09T05:02:22.886Z,12.917
2023-05-09T05:03:23.234Z,12.986
2023-05-09T05:04:23.864Z,12.951
2023-05-09T05:05:28.905Z,13.045
2023-05-09T05:08:23.334Z,13.181
2023-05-09T05:09:23.483Z,13.237
2023-05-09T05:10:22.670Z,13.277
2023-05-09T05:11:22.981Z,13.408
2023-05-09T05:12:23.190Z,13.421
2023-05-09T05:13:23.833Z,13.427
2023-05-09T05:14:23.113Z,13.368
2023-05-09T05:15:23.267Z,13.421
2023-05-09T05:16:23.769Z,13.558
2023-05-09T05:17:23.607Z,13.486
2023-05-09T05:18:23.005Z,13.486
2023-05-09T05:19:23.204Z,13.502
2023-05-09T05:20:23.504Z,13.453
2023-05-09T05:21:22.705Z,13.432
2023-05-09T05:22:22.896Z,13.488
2023-05-09T05:23:23.513Z,13.574
2023-05-09T05:24:22.959Z,13.603
2023-05-09T05:25:23.073Z,13.616
2023-05-09T05:26:23.288Z,13.616
2023-05-09T05:27:23.513Z,13.595
2023-05-09T05:28:22.704Z,13.624
2023-05-09T05:29:22.928Z,13.680
2023-05-09T05:30:23.111Z,13.817
2023-05-09T05:31:22.862Z,13.830
2023-05-09T05:32:23.136Z,14.020
2023-05-09T05:33:23.558Z,13.961
2023-05-09T05:34:22.748Z,14.249
2023-05-09T05:36:23.741Z,14.177
2023-05-09T05:37:23.025Z,14.255
2023-05-09T05:38:23.260Z,14.020
2023-05-09T05:39:23.645Z,14.025
2023-05-09T05:40:22.851Z,14.009
2023-05-09T05:41:23.043Z,14.089
2023-05-09T05:42:23.291Z,14.300
2023-05-09T05:43:23.587Z,14.369
2023-05-09T05:44:22.717Z,14.506
2023-05-09T05:45:23.329Z,14.423
2023-05-09T05:46:23.235Z,14.647
2023-05-09T05:47:24.625Z,14.626
2023-05-09T05:48:23.045Z,15.163
2023-05-09T05:49:23.254Z,15.758
2023-05-09T05:50:23.458Z,15.910
2023-05-09T05:51:22.793Z,15.817
2023-05-09T05:52:22.983Z,15.782
2023-05-09T05:53:24.258Z,16.033
2023-05-09T05:54:23.491Z,16.065
2023-05-09T05:57:23.477Z,16.167
2023-05-09T05:58:23.714Z,15.948
2023-05-09T05:59:22.940Z,16.220
2023-05-09T06:00:23.200Z,16.289
2023-05-09T06:01:22.746Z,16.305
2023-05-09T06:02:23.160Z,15.913
2023-05-09T06:03:23.091Z,15.918
2023-05-09T06:05:23.495Z,15.576
2023-05-09T06:06:22.653Z,15.897
2023-05-09T06:07:22.954Z,15.801
2023-05-09T06:08:23.172Z,15.841
2023-05-09T06:09:23.480Z,15.977
2023-05-09T06:10:23.697Z,15.910
2023-05-09T06:11:22.922Z,15.785
2023-05-09T06:12:23.195Z,15.568
2023-05-09T06:13:22.910Z,15.526
2023-05-09T06:14:23.582Z,15.446
2023-05-09T06:15:23.162Z,15.312
2023-05-09T06:16:25.675Z,15.341
2023-05-09T06:17:23.189Z,15.211
2023-05-09T06:18:23.578Z,15.408
2023-05-09T06:19:22.837Z,15.381
2023-05-09T06:20:23.000Z,15.568
2023-05-09T06:21:23.232Z,15.520
2023-05-09T06:22:23.468Z,15.496
2023-05-09T06:23:23.639Z,15.422
2023-05-09T06:24:36.295Z,15.520
2023-05-09T06:26:23.688Z,15.726
2023-05-09T06:27:22.923Z,15.774
2023-05-09T06:28:23.147Z,15.761
2023-05-09T06:29:23.410Z,15.699
2023-05-09T06:30:32.423Z,15.819
2023-05-09T06:31:25.591Z,15.865
2023-05-09T06:32:23.305Z,15.787
2023-05-09T06:33:23.567Z,15.857
2023-05-09T06:34:22.813Z,15.841
2023-05-09T06:35:23.392Z,15.937
2023-05-09T06:36:23.597Z,16.426
2023-05-09T06:37:22.760Z,16.759
2023-05-09T06:38:22.933Z,16.994
2023-05-09T06:39:23.163Z,17.112
2023-05-09T06:40:23.409Z,17.395
2023-05-09T06:41:23.635Z,17.683
2023-05-09T06:42:22.860Z,17.937
2023-05-09T06:43:23.103Z,18.338
2023-05-09T06:44:23.358Z,18.559
2023-05-09T06:45:24.604Z,17.964
2023-05-09T06:46:23.193Z,18.455
2023-05-09T06:47:23.628Z,18.658
2023-05-09T06:48:23.046Z,18.783
2023-05-09T06:49:23.271Z,18.914
2023-05-09T06:50:23.575Z,19.189
2023-05-09T06:51:23.596Z,19.320
2023-05-09T06:52:22.815Z,19.424
2023-05-09T06:53:23.022Z,19.537
2023-05-09T06:54:23.363Z,19.665
2023-05-09T06:55:24.324Z,18.746
2023-05-09T06:56:25.333Z,18.679
2023-05-09T06:57:23.903Z,18.313
2023-05-09T06:59:23.438Z,17.892
2023-05-09T07:00:23.685Z,18.330
2023-05-09T07:01:23.233Z,17.913
2023-05-09T07:02:23.891Z,17.686
2023-05-09T07:03:23.233Z,17.649
2023-05-09T07:04:23.441Z,17.261
2023-05-09T07:05:23.358Z,17.328
2023-05-09T07:06:23.003Z,17.478
2023-05-09T07:07:23.326Z,17.339
2023-05-09T07:08:23.592Z,17.352
2023-05-09T07:09:22.856Z,17.082
2023-05-09T07:10:23.027Z,16.834
2023-05-09T07:11:23.354Z,16.933
2023-05-09T07:12:23.582Z,16.818
2023-05-09T07:13:23.341Z,16.797
2023-05-09T07:14:23.718Z,16.599
2023-05-09T07:15:41.201Z,16.546
2023-05-09T07:17:29.697Z,16.674
2023-05-09T07:18:23.016Z,16.610
2023-05-09T07:19:23.281Z,16.450
2023-05-09T07:20:23.800Z,16.535
2023-05-09T07:21:23.289Z,16.407
2023-05-09T07:22:24.013Z,16.580
2023-05-09T07:23:23.149Z,16.388
2023-05-09T07:24:23.461Z,16.572
2023-05-09T07:25:24.010Z,16.869
2023-05-09T07:26:23.236Z,17.109
2023-05-09T07:27:23.472Z,17.301
2023-05-09T07:28:22.995Z,17.518
2023-05-09T07:29:23.262Z,17.958
2023-05-09T07:30:23.881Z,18.073
2023-05-09T07:31:23.275Z,17.787
2023-05-09T07:32:23.806Z,18.084
2023-05-09T07:33:23.104Z,18.378
2023-05-09T07:34:23.310Z,18.586
2023-05-09T07:35:23.916Z,18.634
2023-05-09T07:36:23.153Z,18.786
2023-05-09T07:37:25.449Z,18.313
2023-05-09T07:38:22.664Z,18.265
2023-05-09T07:39:22.908Z,18.057
2023-05-09T07:40:24.497Z,18.532
2023-05-09T07:41:22.786Z,18.938
2023-05-09T07:42:23.242Z,19.315
2023-05-09T07:43:23.524Z,19.464
2023-05-09T07:44:22.877Z,19.462
2023-05-09T07:45:26.793Z,19.625
2023-05-09T07:47:23.152Z,19.320
2023-05-09T07:48:23.452Z,19.328
2023-05-09T07:49:23.673Z,19.587
2023-05-09T07:50:23.017Z,19.499
2023-05-09T07:51:23.354Z,19.726
2023-05-09T07:52:23.746Z,19.488
2023-05-09T07:53:23.318Z,19.387
2023-05-09T07:54:23.582Z,19.419
2023-05-09T07:55:23.283Z,19.435
2023-05-09T07:56:23.492Z,19.443
2023-05-09T07:57:22.742Z,19.446
2023-05-09T07:58:22.970Z,19.392
2023-05-09T07:59:23.203Z,19.510
2023-05-09T08:00:23.544Z,19.542
2023-05-09T08:01:22.840Z,18.864
2023-05-09T08:02:23.498Z,19.261
2023-05-09T08:03:23.117Z,19.689
2023-05-09T08:04:23.253Z,19.398
2023-05-09T08:05:23.852Z,19.699
2023-05-09T08:06:23.060Z,19.272
2023-05-09T08:07:23.473Z,19.107
2023-05-09T08:08:22.719Z,18.794
2023-05-09T08:09:22.968Z,19.502
2023-05-09T08:10:23.236Z,19.622
2023-05-09T08:11:23.515Z,19.870
2023-05-09T08:12:22.782Z,19.980
2023-05-09T08:13:23.288Z,19.793
2023-05-09T08:14:24.709Z,19.435
2023-05-09T08:15:23.317Z,19.435
2023-05-09T08:16:23.685Z,19.694
2023-05-09T08:17:23.066Z,20.295
2023-05-09T08:18:23.443Z,20.589
2023-05-09T08:20:22.941Z,20.893
2023-05-09T08:21:26.676Z,21.187
2023-05-09T08:24:23.483Z,21.203
2023-05-09T08:25:22.865Z,21.008
2023-05-09T08:26:23.033Z,21.424
2023-05-09T08:27:23.333Z,21.099
2023-05-09T08:28:24.393Z,21.336
2023-05-09T08:29:22.748Z,21.627
2023-05-09T08:30:23.002Z,21.229
2023-05-09T08:31:23.602Z,21.216
2023-05-09T08:32:23.003Z,21.005
2023-05-09T08:33:23.309Z,20.396
2023-05-09T08:34:23.568Z,20.081
2023-05-09T08:35:23.014Z,20.594
2023-05-09T08:36:23.163Z,20.981
2023-05-09T08:37:24.770Z,21.662
2023-05-09T08:38:22.988Z,21.347
2023-05-09T08:39:23.219Z,20.973
2023-05-09T08:40:23.963Z,21.390
2023-05-09T08:41:23.231Z,21.133
2023-05-09T08:42:25.470Z,21.280
2023-05-09T08:43:23.533Z,21.318
2023-05-09T08:44:22.756Z,21.219
2023-05-09T08:45:23.083Z,21.216
2023-05-09T08:46:23.581Z,21.489
2023-05-09T08:47:23.006Z,21.585
2023-05-09T08:48:23.386Z,21.358
2023-05-09T08:49:23.614Z,21.724
2023-05-09T08:50:23.528Z,21.224
2023-05-09T08:52:22.979Z,21.838
2023-05-09T08:53:23.258Z,22.143
2023-05-09T08:54:25.735Z,22.196
2023-05-09T08:56:23.338Z,21.606
2023-05-09T08:57:23.655Z,21.833
2023-05-09T08:58:22.908Z,22.485
2023-05-09T09:00:26.753Z,22.971
2023-05-09T09:03:23.336Z,22.380
2023-05-09T09:04:24.174Z,22.837
2023-05-09T09:05:41.386Z,23.539
2023-05-09T09:07:23.483Z,23.625
2023-05-09T09:08:23.280Z,24.332
2023-05-09T09:09:23.561Z,24.458
2023-05-09T09:10:23.858Z,22.687
2023-05-09T09:11:23.102Z,22.914
2023-05-09T09:12:23.341Z,23.056
2023-05-09T09:13:23.851Z,23.190
2023-05-09T09:14:23.511Z,22.869
2023-05-09T09:15:22.722Z,23.328
2023-05-09T09:16:23.412Z,23.700
2023-05-09T09:17:22.833Z,23.083
2023-05-09T09:18:23.184Z,22.629
2023-05-09T09:19:23.483Z,23.569
2023-05-09T09:20:23.015Z,24.028
2023-05-09T09:21:23.309Z,24.081
2023-05-09T09:22:23.586Z,23.278
2023-05-09T09:23:22.831Z,23.117
2023-05-09T09:24:23.054Z,23.168
2023-05-09T09:25:23.355Z,23.470
2023-05-09T09:26:23.617Z,23.481
2023-05-09T09:27:22.945Z,23.726
2023-05-09T09:28:23.153Z,23.019
2023-05-09T09:29:23.464Z,23.198
2023-05-09T09:30:22.767Z,23.355
2023-05-09T09:31:26.325Z,23.668
2023-05-09T09:32:23.091Z,23.996
2023-05-09T09:33:23.559Z,23.633
2023-05-09T09:34:22.879Z,23.579
2023-05-09T09:35:23.173Z,22.549
2023-05-09T09:36:23.356Z,22.898
2023-05-09T09:37:23.591Z,22.111
2023-05-09T09:38:23.237Z,22.303
2023-05-09T09:39:23.463Z,21.732
2023-05-09T09:40:24.284Z,21.358
2023-05-09T09:41:23.496Z,21.812
2023-05-09T09:42:23.746Z,21.643
2023-05-09T09:43:23.345Z,21.750
2023-05-09T09:44:23.620Z,22.250
2023-05-09T09:45:23.056Z,22.712
2023-05-09T09:46:23.728Z,23.075
2023-05-09T09:47:23.085Z,22.995
2023-05-09T09:48:23.658Z,21.673
2023-05-09T09:49:23.281Z,21.750
2023-05-09T09:50:23.121Z,22.655
2023-05-09T09:51:23.589Z,22.097
2023-05-09T09:52:22.919Z,22.752
2023-05-09T09:53:23.340Z,22.821
2023-05-09T09:54:22.806Z,23.585
2023-05-09T09:55:23.068Z,23.521
2023-05-09T09:56:23.331Z,23.139
2023-05-09T09:57:23.648Z,23.291
2023-05-09T09:58:22.895Z,23.702
2023-05-09T09:59:23.479Z,24.145
2023-05-09T10:00:23.146Z,24.519
2023-05-09T10:01:23.712Z,23.766
2023-05-09T10:02:23.161Z,23.571
2023-05-09T10:03:23.997Z,23.470
2023-05-09T10:04:23.414Z,23.537
2023-05-09T10:05:23.689Z,23.993
2023-05-09T10:06:22.944Z,23.945
2023-05-09T10:07:24.322Z,22.578
2023-05-09T10:08:23.624Z,23.403
2023-05-09T10:11:22.764Z,23.689
2023-05-09T10:12:23.010Z,24.247
2023-05-09T10:13:23.752Z,23.355
2023-05-09T10:16:43.528Z,25.120
2023-05-09T10:18:24.257Z,24.936
2023-05-09T10:19:23.114Z,25.192
2023-05-09T10:20:23.799Z,25.443
2023-05-09T10:21:23.064Z,25.064
2023-05-09T10:22:23.354Z,24.298
2023-05-09T10:23:23.622Z,24.800
2023-05-09T10:24:22.808Z,25.817
2023-05-09T10:25:23.139Z,26.140
2023-05-09T10:26:23.345Z,25.595
2023-05-09T10:27:23.563Z,27.198
2023-05-09T10:28:22.762Z,26.522
2023-05-09T10:29:23.004Z,27.491
2023-05-09T10:30:23.513Z,27.820
2023-05-09T10:31:23.350Z,27.187
2023-05-09T10:32:22.912Z,25.598
2023-05-09T10:33:23.270Z,26.720
2023-05-09T10:34:23.511Z,26.501
2023-05-09T10:35:23.050Z,26.581
2023-05-09T10:36:23.350Z,24.800
2023-05-09T10:37:23.612Z,25.571
2023-05-09T10:38:23.364Z,25.224
2023-05-09T10:39:23.570Z,26.164
2023-05-09T10:40:22.978Z,25.806
2023-05-09T10:41:23.393Z,26.394
2023-05-09T10:42:23.677Z,26.306
2023-05-09T10:43:22.918Z,26.525
2023-05-09T10:44:23.269Z,26.597
2023-05-09T10:45:24.025Z,26.322
2023-05-09T10:46:23.525Z,26.781
2023-05-09T10:47:22.900Z,27.166
2023-05-09T10:48:23.263Z,27.120
2023-05-09T10:49:23.561Z,26.995
2023-05-09T10:50:22.966Z,23.857
2023-05-09T10:51:23.352Z,24.634
2023-05-09T10:52:23.537Z,25.481
2023-05-09T10:53:22.712Z,26.511
2023-05-09T10:54:22.954Z,26.672
2023-05-09T10:55:23.151Z,27.526
2023-05-09T10:56:23.405Z,27.855
2023-05-09T10:57:23.654Z,27.206
2023-05-09T10:58:22.931Z,26.543
2023-05-09T10:59:23.221Z,26.292
2023-05-09T11:00:24.102Z,26.191
2023-05-09T11:01:23.857Z,25.860
2023-05-09T11:02:23.228Z,25.414
2023-05-09T11:03:24.220Z,25.478
2023-05-09T11:04:22.951Z,25.117
2023-05-09T11:05:23.208Z,26.210
2023-05-09T11:06:23.500Z,25.943
2023-05-09T11:07:22.738Z,26.818
2023-05-09T11:08:23.039Z,26.843
2023-05-09T11:09:23.277Z,25.387
2023-05-09T11:10:23.653Z,25.881
2023-05-09T11:11:22.855Z,26.135
2023-05-09T11:12:23.230Z,25.716
2023-05-09T11:13:23.796Z,26.768
2023-05-09T11:14:23.373Z,26.346
2023-05-09T11:15:23.584Z,25.769
2023-05-09T11:16:22.946Z,25.622
2023-05-09T11:17:23.460Z,26.207
2023-05-09T11:18:24.274Z,26.463
2023-05-09T11:19:23.559Z,26.933
2023-05-09T11:22:23.317Z,26.851
2023-05-09T11:23:23.526Z,27.491
2023-05-09T11:24:22.693Z,27.419
2023-05-09T11:25:23.253Z,27.598
2023-05-09T11:26:23.708Z,27.748
2023-05-09T11:27:22.979Z,27.892
2023-05-09T11:28:23.196Z,27.574
2023-05-09T11:29:23.419Z,27.224
2023-05-09T11:30:24.156Z,28.215
2023-05-09T11:31:23.559Z,27.128
2023-05-09T11:32:23.322Z,26.047
2023-05-09T11:33:23.655Z,25.903
2023-05-09T11:34:22.877Z,25.486
2023-05-09T11:35:23.840Z,26.581
2023-05-09T11:39:22.917Z,26.736
2023-05-09T11:40:23.270Z,27.024
2023-05-09T11:41:23.480Z,26.650
2023-05-09T11:42:22.734Z,25.617
2023-05-09T11:43:22.979Z,26.423
2023-05-09T11:44:23.329Z,26.346
2023-05-09T11:45:23.990Z,26.621
2023-05-09T11:46:23.416Z,25.628
2023-05-09T11:47:22.849Z,25.932
2023-05-09T11:48:23.285Z,26.223
2023-05-09T11:49:23.516Z,25.777
2023-05-09T11:50:22.744Z,25.390
2023-05-09T11:51:24.613Z,25.029
2023-05-09T11:52:22.826Z,25.534
2023-05-09T11:53:23.066Z,25.075
2023-05-09T11:54:23.295Z,25.486
2023-05-09T11:55:24.794Z,25.614
2023-05-09T11:56:23.191Z,25.093
2023-05-09T11:57:23.485Z,25.753
2023-05-09T11:58:23.753Z,26.154
2023-05-09T11:59:23.223Z,26.357
2023-05-09T12:01:22.782Z,26.928
2023-05-09T12:02:23.337Z,25.745
2023-05-09T12:03:23.472Z,24.842
2023-05-09T12:04:23.075Z,26.255
2023-05-09T12:05:23.900Z,26.370
2023-05-09T12:06:23.101Z,27.160
2023-05-09T12:07:23.343Z,27.363
2023-05-09T12:08:23.727Z,27.489
2023-05-09T12:09:22.978Z,27.716
2023-05-09T12:10:23.396Z,27.959
2023-05-09T12:11:23.738Z,27.454
2023-05-09T12:12:23.365Z,27.531
2023-05-09T12:13:23.885Z,27.313
2023-05-09T12:14:23.863Z,26.629
2023-05-09T12:15:25.114Z,26.437
2023-05-09T12:16:23.636Z,27.278
2023-05-09T12:17:23.211Z,27.296
2023-05-09T12:18:23.576Z,27.056
2023-05-09T12:19:22.853Z,26.714
2023-05-09T12:20:23.560Z,26.586
2023-05-09T12:23:23.834Z,27.262
2023-05-09T12:24:23.114Z,26.752
2023-05-09T12:25:23.435Z,27.198
2023-05-09T12:26:22.737Z,27.288
2023-05-09T12:27:23.004Z,27.182
2023-05-09T12:28:23.304Z,27.948
2023-05-09T12:29:23.587Z,27.924
2023-05-09T12:30:22.793Z,27.024
2023-05-09T12:31:23.666Z,27.577
2023-05-09T12:32:23.253Z,27.628
2023-05-09T12:33:23.554Z,27.916
2023-05-09T12:34:22.780Z,28.001
2023-05-09T12:35:23.617Z,27.825
2023-05-09T12:36:22.935Z,27.556
2023-05-09T12:37:23.167Z,27.863
2023-05-09T12:38:23.532Z,27.515
2023-05-09T12:39:23.289Z,26.987
2023-05-09T12:40:23.479Z,26.357
2023-05-09T12:41:46.755Z,26.506
2023-05-09T12:42:23.503Z,27.037
2023-05-09T12:44:22.973Z,26.789
2023-05-09T12:45:23.487Z,27.438
2023-05-09T12:46:24.029Z,28.106
2023-05-09T12:47:23.899Z,27.160
2023-05-09T12:48:23.261Z,27.809
2023-05-09T12:49:23.512Z,27.443
2023-05-09T12:50:22.708Z,28.012
2023-05-09T12:51:22.902Z,28.362
2023-05-09T12:52:23.200Z,28.920
2023-05-09T12:53:23.416Z,29.604
2023-05-09T12:54:23.696Z,29.625
2023-05-09T12:55:22.949Z,28.370
2023-05-09T12:56:23.454Z,28.602
2023-05-09T12:57:22.930Z,28.343
2023-05-09T12:58:23.493Z,28.610
2023-05-09T12:59:22.926Z,29.011
2023-05-09T13:00:23.180Z,28.771
2023-05-09T13:01:23.980Z,28.028
2023-05-09T13:02:23.136Z,27.839
2023-05-09T13:03:23.810Z,28.058
2023-05-09T13:04:23.414Z,28.455
2023-05-09T13:05:23.344Z,28.260
2023-05-09T13:07:22.959Z,28.287
2023-05-09T13:08:23.253Z,27.740
2023-05-09T13:09:23.520Z,27.940
2023-05-09T13:10:22.796Z,27.900